Terminal Aerodrome Forecast
Issued by NWS Denver/Boulder, CO

Home | Current Version | Previous Version | Text Only | Print | Product List | Glossary On
Versions: 1 2 3 4 5 6 7 8 9 10 11 12 13 14 15 16 17 18 19 20 21 22 23 24 25 26 27 28 29 30 31 32 33 34 35 36
000
FTUS45 KBOU 191937 AAA
TAFDEN
TAF AMD
KDEN 191937Z 1920/2024 24006KT P6SM FEW120
     FM192045 29012G19KT P6SM SCT120
     FM200000 13010KT P6SM SCT110 BKN200
     FM200300 18010KT P6SM SCT110 BKN200
     FM200600 20010KT P6SM FEW120 SCT200
     FM201400 24007KT P6SM FEW120 SCT200
     FM201900 07005KT P6SM SCT110 BKN200=

USA.gov is the U.S. government's official web portal to all federal, state and local government web resources and services.